sensor_id;sensor_type;location;lat;lon;timestamp;P1;durP1;ratioP1;P2;durP2;ratioP2
21643;SDS011;10983;51.982;9.226;2024-03-23T00:54:57;0.52;;;0.52;;
21643;SDS011;10983;51.982;9.226;2024-03-23T00:57:24;0.20;;;0.20;;
21643;SDS011;10983;51.982;9.226;2024-03-23T00:59:51;1.10;;;1.05;;
21643;SDS011;10983;51.982;9.226;2024-03-23T01:02:16;0.20;;;0.20;;
21643;SDS011;10983;51.982;9.226;2024-03-23T01:04:43;1.98;;;1.88;;
21643;SDS011;10983;51.982;9.226;2024-03-23T01:07:09;1.40;;;0.35;;
21643;SDS011;10983;51.982;9.226;2024-03-23T01:09:37;0.68;;;0.68;;
21643;SDS011;10983;51.982;9.226;2024-03-23T01:12:05;0.30;;;0.30;;
21643;SDS011;10983;51.982;9.226;2024-03-23T01:14:32;0.45;;;0.45;;
21643;SDS011;10983;51.982;9.226;2024-03-23T01:16:57;0.10;;;0.10;;
21643;SDS011;10983;51.982;9.226;2024-03-23T01:19:24;0.10;;;0.10;;
21643;SDS011;10983;51.982;9.226;2024-03-23T01:21:50;0.30;;;0.30;;
21643;SDS011;10983;51.982;9.226;2024-03-23T01:24:16;4.38;;;1.98;;
21643;SDS011;10983;51.982;9.226;2024-03-23T01:26:42;0.47;;;0.47;;
21643;SDS011;10983;51.982;9.226;2024-03-23T01:29:09;0.45;;;0.45;;
21643;SDS011;10983;51.982;9.226;2024-03-23T01:31:36;0.10;;;0.10;;
21643;SDS011;10983;51.982;9.226;2024-03-23T01:34:03;0.20;;;0.20;;
21643;SDS011;10983;51.982;9.226;2024-03-23T01:36:29;1.30;;;1.30;;
21643;SDS011;10983;51.982;9.226;2024-03-23T01:38:57;0.63;;;0.63;;
21643;SDS011;10983;51.982;9.226;2024-03-23T01:41:23;0.20;;;0.20;;
21643;SDS011;10983;51.982;9.226;2024-03-23T01:43:50;0.10;;;0.10;;
21643;SDS011;10983;51.982;9.226;2024-03-23T01:46:17;0.55;;;0.55;;
21643;SDS011;10983;51.982;9.226;2024-03-23T01:48:44;1.20;;;0.52;;
21643;SDS011;10983;51.982;9.226;2024-03-23T01:51:11;0.73;;;0.73;;
21643;SDS011;10983;51.982;9.226;2024-03-23T01:53:38;5.38;;;2.13;;
21643;SDS011;10983;51.982;9.226;2024-03-23T01:56:04;4.55;;;0.73;;
21643;SDS011;10983;51.982;9.226;2024-03-23T01:58:32;0.50;;;0.50;;
21643;SDS011;10983;51.982;9.226;2024-03-23T02:00:57;0.20;;;0.20;;
21643;SDS011;10983;51.982;9.226;2024-03-23T02:03:26;2.28;;;0.80;;
21643;SDS011;10983;51.982;9.226;2024-03-23T02:05:52;5.07;;;1.00;;
21643;SDS011;10983;51.982;9.226;2024-03-23T02:08:20;2.15;;;1.95;;
21643;SDS011;10983;51.982;9.226;2024-03-23T02:10:46;0.68;;;0.55;;
21643;SDS011;10983;51.982;9.226;2024-03-23T02:13:14;0.47;;;0.47;;
21643;SDS011;10983;51.982;9.226;2024-03-23T02:15:41;1.25;;;1.25;;
21643;SDS011;10983;51.982;9.226;2024-03-23T02:18:08;0.13;;;0.13;;
21643;SDS011;10983;51.982;9.226;2024-03-23T02:20:37;0.57;;;0.57;;
21643;SDS011;10983;51.982;9.226;2024-03-23T02:23:05;0.55;;;0.55;;
21643;SDS011;10983;51.982;9.226;2024-03-23T02:25:32;0.40;;;0.40;;
21643;SDS011;10983;51.982;9.226;2024-03-23T02:27:58;0.10;;;0.10;;
21643;SDS011;10983;51.982;9.226;2024-03-23T02:30:24;0.10;;;0.10;;
21643;SDS011;10983;51.982;9.226;2024-03-23T02:32:50;0.10;;;0.10;;
21643;SDS011;10983;51.982;9.226;2024-03-23T02:35:16;0.10;;;0.10;;
21643;SDS011;10983;51.982;9.226;2024-03-23T02:37:45;0.15;;;0.15;;
21643;SDS011;10983;51.982;9.226;2024-03-23T02:40:14;0.35;;;0.35;;
21643;SDS011;10983;51.982;9.226;2024-03-23T02:42:40;0.10;;;0.10;;
21643;SDS011;10983;51.982;9.226;2024-03-23T02:45:07;0.10;;;0.10;;
21643;SDS011;10983;51.982;9.226;2024-03-23T02:47:33;0.20;;;0.20;;
21643;SDS011;10983;51.982;9.226;2024-03-23T02:49:59;0.20;;;0.20;;
21643;SDS011;10983;51.982;9.226;2024-03-23T02:52:27;0.10;;;0.10;;
21643;SDS011;10983;51.982;9.226;2024-03-23T02:54:53;0.10;;;0.10;;
21643;SDS011;10983;51.982;9.226;2024-03-23T02:57:20;0.10;;;0.10;;
21643;SDS011;10983;51.982;9.226;2024-03-23T02:59:47;0.10;;;0.10;;
21643;SDS011;10983;51.982;9.226;2024-03-23T03:02:16;0.10;;;0.10;;
21643;SDS011;10983;51.982;9.226;2024-03-23T03:04:42;0.10;;;0.10;;
21643;SDS011;10983;51.982;9.226;2024-03-23T03:07:08;0.17;;;0.17;;
21643;SDS011;10983;51.982;9.226;2024-03-23T03:09:39;0.73;;;0.47;;
21643;SDS011;10983;51.982;9.226;2024-03-23T03:12:04;1.40;;;1.33;;
21643;SDS011;10983;51.982;9.226;2024-03-23T03:14:33;3.50;;;1.67;;
21643;SDS011;10983;51.982;9.226;2024-03-23T03:16:59;0.70;;;0.63;;
21643;SDS011;10983;51.982;9.226;2024-03-23T03:19:26;0.20;;;0.20;;
21643;SDS011;10983;51.982;9.226;2024-03-23T03:21:51;6.07;;;2.45;;
21643;SDS011;10983;51.982;9.226;2024-03-23T03:24:18;2.47;;;2.30;;
21643;SDS011;10983;51.982;9.226;2024-03-23T03:26:44;5.07;;;0.77;;
21643;SDS011;10983;51.982;9.226;2024-03-23T03:29:11;0.30;;;0.30;;
21643;SDS011;10983;51.982;9.226;2024-03-23T03:31:38;0.10;;;0.10;;
21643;SDS011;10983;51.982;9.226;2024-03-23T03:34:04;0.10;;;0.10;;
21643;SDS011;10983;51.982;9.226;2024-03-23T03:36:30;0.45;;;0.45;;
21643;SDS011;10983;51.982;9.226;2024-03-23T03:38:57;3.83;;;2.75;;
21643;SDS011;10983;51.982;9.226;2024-03-23T03:41:23;1.60;;;1.50;;
21643;SDS011;10983;51.982;9.226;2024-03-23T03:43:51;0.70;;;0.70;;
21643;SDS011;10983;51.982;9.226;2024-03-23T03:46:17;0.75;;;0.75;;
21643;SDS011;10983;51.982;9.226;2024-03-23T03:48:44;1.40;;;1.30;;
21643;SDS011;10983;51.982;9.226;2024-03-23T03:51:11;1.35;;;0.95;;
21643;SDS011;10983;51.982;9.226;2024-03-23T03:53:38;6.38;;;1.55;;
21643;SDS011;10983;51.982;9.226;2024-03-23T03:56:03;4.18;;;1.33;;
21643;SDS011;10983;51.982;9.226;2024-03-23T03:58:30;0.35;;;0.35;;
21643;SDS011;10983;51.982;9.226;2024-03-23T04:00:56;1.67;;;1.08;;
21643;SDS011;10983;51.982;9.226;2024-03-23T04:03:22;2.50;;;1.20;;
21643;SDS011;10983;51.982;9.226;2024-03-23T04:05:51;0.88;;;0.88;;
21643;SDS011;10983;51.982;9.226;2024-03-23T04:08:18;0.65;;;0.65;;
21643;SDS011;10983;51.982;9.226;2024-03-23T04:10:44;0.50;;;0.50;;
21643;SDS011;10983;51.982;9.226;2024-03-23T04:13:11;6.43;;;1.40;;
21643;SDS011;10983;51.982;9.226;2024-03-23T04:15:36;0.35;;;0.35;;
21643;SDS011;10983;51.982;9.226;2024-03-23T04:18:03;0.52;;;0.52;;
21643;SDS011;10983;51.982;9.226;2024-03-23T04:20:29;2.53;;;1.73;;
21643;SDS011;10983;51.982;9.226;2024-03-23T04:22:57;0.88;;;0.88;;
21643;SDS011;10983;51.982;9.226;2024-03-23T04:25:24;0.65;;;0.65;;
21643;SDS011;10983;51.982;9.226;2024-03-23T04:27:51;0.25;;;0.25;;
21643;SDS011;10983;51.982;9.226;2024-03-23T04:30:16;0.30;;;0.30;;
21643;SDS011;10983;51.982;9.226;2024-03-23T04:32:43;1.25;;;1.25;;
21643;SDS011;10983;51.982;9.226;2024-03-23T04:35:11;0.30;;;0.30;;
21643;SDS011;10983;51.982;9.226;2024-03-23T04:37:38;6.50;;;1.50;;
21643;SDS011;10983;51.982;9.226;2024-03-23T04:40:08;0.20;;;0.20;;
21643;SDS011;10983;51.982;9.226;2024-03-23T04:42:37;3.03;;;2.78;;
21643;SDS011;10983;51.982;9.226;2024-03-23T04:45:04;0.20;;;0.20;;
21643;SDS011;10983;51.982;9.226;2024-03-23T04:47:32;0.47;;;0.47;;
21643;SDS011;10983;51.982;9.226;2024-03-23T04:49:58;0.63;;;0.63;;
21643;SDS011;10983;51.982;9.226;2024-03-23T04:52:24;0.40;;;0.40;;
21643;SDS011;10983;51.982;9.226;2024-03-23T04:54:50;0.40;;;0.40;;
21643;SDS011;10983;51.982;9.226;2024-03-23T04:57:17;0.47;;;0.47;;
21643;SDS011;10983;51.982;9.226;2024-03-23T04:59:43;0.35;;;0.35;;
21643;SDS011;10983;51.982;9.226;2024-03-23T05:02:10;0.30;;;0.30;;
21643;SDS011;10983;51.982;9.226;2024-03-23T05:04:37;3.42;;;3.13;;
21643;SDS011;10983;51.982;9.226;2024-03-23T05:07:05;0.28;;;0.28;;
21643;SDS011;10983;51.982;9.226;2024-03-23T05:09:31;0.95;;;0.95;;
21643;SDS011;10983;51.982;9.226;2024-03-23T05:11:58;0.55;;;0.50;;
21643;SDS011;10983;51.982;9.226;2024-03-23T05:14:26;1.42;;;1.35;;
21643;SDS011;10983;51.982;9.226;2024-03-23T05:16:55;6.47;;;1.55;;
21643;SDS011;10983;51.982;9.226;2024-03-23T05:19:21;3.72;;;1.98;;
21643;SDS011;10983;51.982;9.226;2024-03-23T05:21:47;1.67;;;1.58;;
21643;SDS011;10983;51.982;9.226;2024-03-23T05:24:13;1.58;;;1.02;;
21643;SDS011;10983;51.982;9.226;2024-03-23T05:26:40;1.17;;;0.82;;
21643;SDS011;10983;51.982;9.226;2024-03-23T05:29:05;2.83;;;2.00;;
21643;SDS011;10983;51.982;9.226;2024-03-23T05:31:37;3.60;;;3.35;;
21643;SDS011;10983;51.982;9.226;2024-03-23T05:34:03;6.35;;;1.70;;
21643;SDS011;10983;51.982;9.226;2024-03-23T05:36:31;1.77;;;1.17;;
21643;SDS011;10983;51.982;9.226;2024-03-23T05:38:57;0.50;;;0.50;;
21643;SDS011;10983;51.982;9.226;2024-03-23T05:41:24;3.95;;;1.25;;
21643;SDS011;10983;51.982;9.226;2024-03-23T05:43:50;0.82;;;0.82;;
21643;SDS011;10983;51.982;9.226;2024-03-23T05:46:16;0.20;;;0.20;;
21643;SDS011;10983;51.982;9.226;2024-03-23T05:48:44;0.20;;;0.20;;
21643;SDS011;10983;51.982;9.226;2024-03-23T05:51:11;0.82;;;0.82;;
21643;SDS011;10983;51.982;9.226;2024-03-23T05:53:37;0.43;;;0.43;;
21643;SDS011;10983;51.982;9.226;2024-03-23T05:56:04;0.63;;;0.63;;
21643;SDS011;10983;51.982;9.226;2024-03-23T05:58:33;0.30;;;0.30;;
21643;SDS011;10983;51.982;9.226;2024-03-23T06:01:00;0.77;;;0.77;;
21643;SDS011;10983;51.982;9.226;2024-03-23T06:03:26;0.75;;;0.75;;
21643;SDS011;10983;51.982;9.226;2024-03-23T06:05:54;0.63;;;0.35;;
21643;SDS011;10983;51.982;9.226;2024-03-23T06:08:20;0.28;;;0.28;;
21643;SDS011;10983;51.982;9.226;2024-03-23T06:10:47;1.15;;;1.10;;
21643;SDS011;10983;51.982;9.226;2024-03-23T06:13:12;5.60;;;2.90;;
21643;SDS011;10983;51.982;9.226;2024-03-23T06:15:39;27.83;;;4.00;;
21643;SDS011;10983;51.982;9.226;2024-03-23T06:18:05;0.93;;;0.93;;
21643;SDS011;10983;51.982;9.226;2024-03-23T06:20:33;3.10;;;1.45;;
21643;SDS011;10983;51.982;9.226;2024-03-23T06:23:00;1.98;;;1.27;;
21643;SDS011;10983;51.982;9.226;2024-03-23T06:25:26;1.33;;;1.23;;
21643;SDS011;10983;51.982;9.226;2024-03-23T06:27:54;5.93;;;1.35;;
21643;SDS011;10983;51.982;9.226;2024-03-23T06:30:21;1.13;;;1.13;;
21643;SDS011;10983;51.982;9.226;2024-03-23T06:32:47;0.38;;;0.32;;
21643;SDS011;10983;51.982;9.226;2024-03-23T06:35:14;1.55;;;1.05;;
21643;SDS011;10983;51.982;9.226;2024-03-23T06:37:40;1.65;;;1.10;;
21643;SDS011;10983;51.982;9.226;2024-03-23T06:40:08;0.60;;;0.60;;
21643;SDS011;10983;51.982;9.226;2024-03-23T06:42:35;16.75;;;1.05;;
21643;SDS011;10983;51.982;9.226;2024-03-23T06:45:01;0.40;;;0.40;;
21643;SDS011;10983;51.982;9.226;2024-03-23T06:47:30;0.20;;;0.20;;
21643;SDS011;10983;51.982;9.226;2024-03-23T06:49:57;0.20;;;0.20;;
21643;SDS011;10983;51.982;9.226;2024-03-23T06:52:23;0.28;;;0.28;;
21643;SDS011;10983;51.982;9.226;2024-03-23T06:54:49;0.90;;;0.90;;
21643;SDS011;10983;51.982;9.226;2024-03-23T06:57:16;1.33;;;1.25;;
21643;SDS011;10983;51.982;9.226;2024-03-23T06:59:43;0.57;;;0.57;;
21643;SDS011;10983;51.982;9.226;2024-03-23T07:02:08;1.02;;;1.00;;
21643;SDS011;10983;51.982;9.226;2024-03-23T07:04:35;3.20;;;1.35;;
21643;SDS011;10983;51.982;9.226;2024-03-23T07:07:00;1.08;;;0.90;;
21643;SDS011;10983;51.982;9.226;2024-03-23T07:09:28;2.53;;;1.10;;
21643;SDS011;10983;51.982;9.226;2024-03-23T07:11:54;3.83;;;1.15;;
21643;SDS011;10983;51.982;9.226;2024-03-23T07:14:22;0.25;;;0.25;;
21643;SDS011;10983;51.982;9.226;2024-03-23T07:16:49;1.02;;;1.02;;
21643;SDS011;10983;51.982;9.226;2024-03-23T07:19:19;0.35;;;0.35;;
21643;SDS011;10983;51.982;9.226;2024-03-23T07:21:45;0.30;;;0.30;;
21643;SDS011;10983;51.982;9.226;2024-03-23T07:24:13;0.20;;;0.20;;
21643;SDS011;10983;51.982;9.226;2024-03-23T07:26:38;1.85;;;1.70;;
21643;SDS011;10983;51.982;9.226;2024-03-23T07:29:05;0.85;;;0.85;;
21643;SDS011;10983;51.982;9.226;2024-03-23T07:31:32;1.58;;;1.48;;
21643;SDS011;10983;51.982;9.226;2024-03-23T07:33:59;8.15;;;1.40;;
21643;SDS011;10983;51.982;9.226;2024-03-23T07:36:25;0.20;;;0.20;;
21643;SDS011;10983;51.982;9.226;2024-03-23T07:38:51;0.65;;;0.65;;
21643;SDS011;10983;51.982;9.226;2024-03-23T07:41:19;0.90;;;0.90;;
21643;SDS011;10983;51.982;9.226;2024-03-23T07:43:47;1.48;;;1.20;;
21643;SDS011;10983;51.982;9.226;2024-03-23T07:46:14;11.70;;;2.20;;
21643;SDS011;10983;51.982;9.226;2024-03-23T07:48:43;4.97;;;2.47;;
21643;SDS011;10983;51.982;9.226;2024-03-23T07:51:14;0.75;;;0.75;;
21643;SDS011;10983;51.982;9.226;2024-03-23T07:53:42;12.80;;;2.60;;
21643;SDS011;10983;51.982;9.226;2024-03-23T07:56:11;2.53;;;2.33;;
21643;SDS011;10983;51.982;9.226;2024-03-23T07:58:40;3.13;;;1.67;;
21643;SDS011;10983;51.982;9.226;2024-03-23T08:01:07;4.28;;;3.08;;
21643;SDS011;10983;51.982;9.226;2024-03-23T08:03:35;6.80;;;3.58;;
21643;SDS011;10983;51.982;9.226;2024-03-23T08:06:09;3.13;;;0.95;;
21643;SDS011;10983;51.982;9.226;2024-03-23T08:08:37;1.65;;;1.50;;
21643;SDS011;10983;51.982;9.226;2024-03-23T08:11:03;2.38;;;2.15;;
21643;SDS011;10983;51.982;9.226;2024-03-23T08:13:30;4.10;;;2.13;;
21643;SDS011;10983;51.982;9.226;2024-03-23T08:15:57;14.27;;;2.55;;
21643;SDS011;10983;51.982;9.226;2024-03-23T08:18:23;14.15;;;3.42;;
21643;SDS011;10983;51.982;9.226;2024-03-23T08:20:55;1.67;;;1.52;;
21643;SDS011;10983;51.982;9.226;2024-03-23T08:23:24;6.22;;;3.60;;
21643;SDS011;10983;51.982;9.226;2024-03-23T08:25:50;0.47;;;0.47;;
21643;SDS011;10983;51.982;9.226;2024-03-23T08:28:16;1.70;;;1.13;;
21643;SDS011;10983;51.982;9.226;2024-03-23T08:30:42;9.95;;;3.50;;
21643;SDS011;10983;51.982;9.226;2024-03-23T08:33:09;11.63;;;4.60;;
21643;SDS011;10983;51.982;9.226;2024-03-23T08:35:35;4.07;;;3.47;;
21643;SDS011;10983;51.982;9.226;2024-03-23T08:38:01;2.63;;;2.35;;
21643;SDS011;10983;51.982;9.226;2024-03-23T08:40:28;10.70;;;6.80;;
21643;SDS011;10983;51.982;9.226;2024-03-23T08:42:55;4.57;;;3.88;;
21643;SDS011;10983;51.982;9.226;2024-03-23T08:45:22;1.55;;;1.48;;
21643;SDS011;10983;51.982;9.226;2024-03-23T08:47:48;4.30;;;2.15;;
21643;SDS011;10983;51.982;9.226;2024-03-23T08:50:14;9.32;;;2.38;;
21643;SDS011;10983;51.982;9.226;2024-03-23T08:52:40;1.23;;;1.17;;
21643;SDS011;10983;51.982;9.226;2024-03-23T08:55:06;3.28;;;1.75;;
21643;SDS011;10983;51.982;9.226;2024-03-23T08:57:36;2.92;;;1.65;;
21643;SDS011;10983;51.982;9.226;2024-03-23T09:00:02;5.35;;;3.75;;
21643;SDS011;10983;51.982;9.226;2024-03-23T09:02:28;2.72;;;2.30;;
21643;SDS011;10983;51.982;9.226;2024-03-23T09:04:54;6.85;;;3.47;;
21643;SDS011;10983;51.982;9.226;2024-03-23T09:07:20;9.77;;;4.53;;
21643;SDS011;10983;51.982;9.226;2024-03-23T09:09:46;4.07;;;3.40;;
21643;SDS011;10983;51.982;9.226;2024-03-23T09:12:13;6.20;;;2.55;;
21643;SDS011;10983;51.982;9.226;2024-03-23T09:14:40;8.95;;;5.72;;
21643;SDS011;10983;51.982;9.226;2024-03-23T09:17:06;8.80;;;4.93;;
21643;SDS011;10983;51.982;9.226;2024-03-23T09:19:33;7.97;;;3.47;;
21643;SDS011;10983;51.982;9.226;2024-03-23T09:22:00;11.43;;;3.78;;
21643;SDS011;10983;51.982;9.226;2024-03-23T09:24:26;4.80;;;2.55;;
21643;SDS011;10983;51.982;9.226;2024-03-23T09:26:54;10.85;;;4.45;;
21643;SDS011;10983;51.982;9.226;2024-03-23T09:29:20;23.00;;;5.35;;
21643;SDS011;10983;51.982;9.226;2024-03-23T09:31:47;11.43;;;3.42;;
21643;SDS011;10983;51.982;9.226;2024-03-23T09:34:13;7.95;;;3.10;;
21643;SDS011;10983;51.982;9.226;2024-03-23T09:36:40;7.25;;;4.00;;
21643;SDS011;10983;51.982;9.226;2024-03-23T09:39:06;13.18;;;4.93;;
21643;SDS011;10983;51.982;9.226;2024-03-23T09:41:34;1.92;;;1.83;;
21643;SDS011;10983;51.982;9.226;2024-03-23T09:44:00;4.18;;;2.75;;
21643;SDS011;10983;51.982;9.226;2024-03-23T09:46:26;4.40;;;2.45;;
21643;SDS011;10983;51.982;9.226;2024-03-23T09:48:55;3.50;;;3.28;;
21643;SDS011;10983;51.982;9.226;2024-03-23T09:51:22;13.00;;;5.43;;
21643;SDS011;10983;51.982;9.226;2024-03-23T09:53:49;6.30;;;2.92;;
21643;SDS011;10983;51.982;9.226;2024-03-23T09:56:17;6.10;;;3.22;;
21643;SDS011;10983;51.982;9.226;2024-03-23T09:58:43;1.90;;;1.45;;
21643;SDS011;10983;51.982;9.226;2024-03-23T10:01:10;5.45;;;2.80;;
21643;SDS011;10983;51.982;9.226;2024-03-23T10:03:42;9.02;;;2.30;;
21643;SDS011;10983;51.982;9.226;2024-03-23T10:06:10;4.25;;;2.72;;
21643;SDS011;10983;51.982;9.226;2024-03-23T10:08:36;7.53;;;2.92;;
21643;SDS011;10983;51.982;9.226;2024-03-23T10:11:12;2.15;;;1.67;;
21643;SDS011;10983;51.982;9.226;2024-03-23T10:13:41;1.70;;;1.60;;
21643;SDS011;10983;51.982;9.226;2024-03-23T10:16:09;3.38;;;2.08;;
21643;SDS011;10983;51.982;9.226;2024-03-23T10:18:36;4.10;;;1.52;;
21643;SDS011;10983;51.982;9.226;2024-03-23T10:21:07;7.10;;;2.72;;
21643;SDS011;10983;51.982;9.226;2024-03-23T10:23:35;2.47;;;2.25;;
21643;SDS011;10983;51.982;9.226;2024-03-23T10:26:12;7.55;;;2.75;;
21643;SDS011;10983;51.982;9.226;2024-03-23T10:28:43;3.88;;;2.67;;
21643;SDS011;10983;51.982;9.226;2024-03-23T10:31:17;4.15;;;1.83;;
21643;SDS011;10983;51.982;9.226;2024-03-23T10:33:44;7.22;;;1.73;;
21643;SDS011;10983;51.982;9.226;2024-03-23T10:36:11;2.70;;;2.45;;
21643;SDS011;10983;51.982;9.226;2024-03-23T10:38:39;7.00;;;2.08;;
21643;SDS011;10983;51.982;9.226;2024-03-23T10:41:07;0.50;;;0.50;;
21643;SDS011;10983;51.982;9.226;2024-03-23T10:43:34;1.10;;;1.02;;
21643;SDS011;10983;51.982;9.226;2024-03-23T10:46:02;4.18;;;1.30;;
21643;SDS011;10983;51.982;9.226;2024-03-23T10:48:29;1.42;;;1.38;;
21643;SDS011;10983;51.982;9.226;2024-03-23T10:50:55;1.58;;;1.48;;
21643;SDS011;10983;51.982;9.226;2024-03-23T10:53:22;0.63;;;0.63;;
21643;SDS011;10983;51.982;9.226;2024-03-23T10:55:52;10.52;;;2.22;;
21643;SDS011;10983;51.982;9.226;2024-03-23T10:58:21;0.43;;;0.43;;
21643;SDS011;10983;51.982;9.226;2024-03-23T11:00:51;1.67;;;0.40;;
21643;SDS011;10983;51.982;9.226;2024-03-23T11:03:31;1.00;;;0.55;;
21643;SDS011;10983;51.982;9.226;2024-03-23T11:06:02;0.20;;;0.20;;
21643;SDS011;10983;51.982;9.226;2024-03-23T11:08:30;1.42;;;1.23;;
21643;SDS011;10983;51.982;9.226;2024-03-23T11:11:21;0.35;;;0.35;;
21643;SDS011;10983;51.982;9.226;2024-03-23T11:13:48;5.47;;;2.47;;
21643;SDS011;10983;51.982;9.226;2024-03-23T11:16:15;8.85;;;2.40;;
21643;SDS011;10983;51.982;9.226;2024-03-23T11:18:43;2.38;;;1.60;;
21643;SDS011;10983;51.982;9.226;2024-03-23T11:21:09;2.08;;;1.33;;
21643;SDS011;10983;51.982;9.226;2024-03-23T11:23:36;1.25;;;1.17;;
21643;SDS011;10983;51.982;9.226;2024-03-23T11:26:02;3.40;;;1.80;;
21643;SDS011;10983;51.982;9.226;2024-03-23T11:28:35;1.75;;;1.65;;
21643;SDS011;10983;51.982;9.226;2024-03-23T11:31:00;2.78;;;1.45;;
21643;SDS011;10983;51.982;9.226;2024-03-23T11:33:27;10.63;;;1.95;;
21643;SDS011;10983;51.982;9.226;2024-03-23T11:35:54;3.35;;;1.85;;
21643;SDS011;10983;51.982;9.226;2024-03-23T11:38:22;2.95;;;2.15;;
21643;SDS011;10983;51.982;9.226;2024-03-23T11:40:48;7.57;;;1.75;;
21643;SDS011;10983;51.982;9.226;2024-03-23T11:43:16;7.40;;;1.88;;
21643;SDS011;10983;51.982;9.226;2024-03-23T11:45:44;0.98;;;0.77;;
21643;SDS011;10983;51.982;9.226;2024-03-23T11:48:12;4.05;;;2.30;;
21643;SDS011;10983;51.982;9.226;2024-03-23T11:50:39;1.98;;;1.88;;
21643;SDS011;10983;51.982;9.226;2024-03-23T11:53:14;5.43;;;1.33;;
21643;SDS011;10983;51.982;9.226;2024-03-23T11:55:41;6.90;;;1.52;;
21643;SDS011;10983;51.982;9.226;2024-03-23T11:58:08;2.85;;;1.52;;
21643;SDS011;10983;51.982;9.226;2024-03-23T12:00:36;0.73;;;0.73;;
21643;SDS011;10983;51.982;9.226;2024-03-23T12:03:04;2.30;;;1.08;;
21643;SDS011;10983;51.982;9.226;2024-03-23T12:05:30;1.58;;;1.48;;
21643;SDS011;10983;51.982;9.226;2024-03-23T12:10:45;2.90;;;1.73;;
21643;SDS011;10983;51.982;9.226;2024-03-23T12:13:15;1.15;;;1.15;;
21643;SDS011;10983;51.982;9.226;2024-03-23T12:15:42;1.45;;;1.35;;
21643;SDS011;10983;51.982;9.226;2024-03-23T12:18:10;1.30;;;1.20;;
21643;SDS011;10983;51.982;9.226;2024-03-23T12:20:37;2.97;;;0.95;;
21643;SDS011;10983;51.982;9.226;2024-03-23T12:23:05;1.85;;;1.27;;
21643;SDS011;10983;51.982;9.226;2024-03-23T12:25:31;3.35;;;1.40;;
21643;SDS011;10983;51.982;9.226;2024-03-23T12:27:58;1.95;;;1.10;;
21643;SDS011;10983;51.982;9.226;2024-03-23T12:30:24;1.15;;;1.02;;
21643;SDS011;10983;51.982;9.226;2024-03-23T12:32:51;0.40;;;0.40;;
21643;SDS011;10983;51.982;9.226;2024-03-23T12:35:18;9.27;;;1.30;;
21643;SDS011;10983;51.982;9.226;2024-03-23T12:37:44;0.50;;;0.50;;
21643;SDS011;10983;51.982;9.226;2024-03-23T12:40:10;3.30;;;1.83;;
21643;SDS011;10983;51.982;9.226;2024-03-23T12:42:37;0.75;;;0.75;;
21643;SDS011;10983;51.982;9.226;2024-03-23T12:45:05;1.55;;;1.30;;
21643;SDS011;10983;51.982;9.226;2024-03-23T12:47:32;4.45;;;0.90;;
21643;SDS011;10983;51.982;9.226;2024-03-23T12:49:58;5.72;;;1.75;;
21643;SDS011;10983;51.982;9.226;2024-03-23T12:52:26;4.30;;;2.20;;
21643;SDS011;10983;51.982;9.226;2024-03-23T12:54:54;3.45;;;1.92;;
21643;SDS011;10983;51.982;9.226;2024-03-23T12:57:22;1.10;;;1.10;;
21643;SDS011;10983;51.982;9.226;2024-03-23T12:59:49;0.60;;;0.60;;
21643;SDS011;10983;51.982;9.226;2024-03-23T13:02:17;0.63;;;0.40;;
21643;SDS011;10983;51.982;9.226;2024-03-23T13:04:43;1.13;;;1.13;;
21643;SDS011;10983;51.982;9.226;2024-03-23T13:07:10;0.30;;;0.30;;
21643;SDS011;10983;51.982;9.226;2024-03-23T13:09:37;2.15;;;0.60;;
21643;SDS011;10983;51.982;9.226;2024-03-23T13:12:04;2.70;;;1.02;;
21643;SDS011;10983;51.982;9.226;2024-03-23T13:14:30;1.05;;;1.05;;
21643;SDS011;10983;51.982;9.226;2024-03-23T13:16:57;1.45;;;1.35;;
21643;SDS011;10983;51.982;9.226;2024-03-23T13:19:22;0.50;;;0.50;;
21643;SDS011;10983;51.982;9.226;2024-03-23T13:21:52;1.05;;;0.98;;
21643;SDS011;10983;51.982;9.226;2024-03-23T13:24:20;0.20;;;0.20;;
21643;SDS011;10983;51.982;9.226;2024-03-23T13:26:49;1.25;;;1.23;;
21643;SDS011;10983;51.982;9.226;2024-03-23T13:29:15;0.30;;;0.30;;
21643;SDS011;10983;51.982;9.226;2024-03-23T13:31:41;0.28;;;0.28;;
21643;SDS011;10983;51.982;9.226;2024-03-23T13:34:07;0.80;;;0.80;;
21643;SDS011;10983;51.982;9.226;2024-03-23T13:36:34;0.10;;;0.10;;
21643;SDS011;10983;51.982;9.226;2024-03-23T13:39:00;0.10;;;0.10;;
21643;SDS011;10983;51.982;9.226;2024-03-23T13:41:30;0.10;;;0.10;;
21643;SDS011;10983;51.982;9.226;2024-03-23T13:43:57;2.20;;;1.63;;
21643;SDS011;10983;51.982;9.226;2024-03-23T13:46:23;0.55;;;0.55;;
21643;SDS011;10983;51.982;9.226;2024-03-23T13:48:49;0.00;;;0.00;;
21643;SDS011;10983;51.982;9.226;2024-03-23T13:51:22;0.05;;;0.05;;
21643;SDS011;10983;51.982;9.226;2024-03-23T13:53:50;0.00;;;0.00;;
21643;SDS011;10983;51.982;9.226;2024-03-23T13:56:16;0.70;;;0.43;;
21643;SDS011;10983;51.982;9.226;2024-03-23T13:58:42;1.10;;;0.52;;
21643;SDS011;10983;51.982;9.226;2024-03-23T14:01:13;1.95;;;1.38;;
21643;SDS011;10983;51.982;9.226;2024-03-23T14:03:39;0.70;;;0.70;;
21643;SDS011;10983;51.982;9.226;2024-03-23T14:06:06;3.40;;;1.58;;
21643;SDS011;10983;51.982;9.226;2024-03-23T14:08:33;1.80;;;1.15;;
21643;SDS011;10983;51.982;9.226;2024-03-23T14:11:01;0.98;;;0.95;;
21643;SDS011;10983;51.982;9.226;2024-03-23T14:13:29;2.47;;;2.05;;
21643;SDS011;10983;51.982;9.226;2024-03-23T14:15:56;1.35;;;0.63;;
21643;SDS011;10983;51.982;9.226;2024-03-23T14:18:23;0.60;;;0.57;;
21643;SDS011;10983;51.982;9.226;2024-03-23T14:20:51;0.40;;;0.40;;
21643;SDS011;10983;51.982;9.226;2024-03-23T14:23:23;0.68;;;0.68;;
21643;SDS011;10983;51.982;9.226;2024-03-23T14:25:52;2.25;;;1.58;;
21643;SDS011;10983;51.982;9.226;2024-03-23T14:28:18;0.43;;;0.43;;
21643;SDS011;10983;51.982;9.226;2024-03-23T14:30:44;0.95;;;0.95;;
21643;SDS011;10983;51.982;9.226;2024-03-23T14:33:10;5.57;;;1.10;;
21643;SDS011;10983;51.982;9.226;2024-03-23T14:35:39;0.35;;;0.35;;
21643;SDS011;10983;51.982;9.226;2024-03-23T14:38:05;0.20;;;0.20;;
21643;SDS011;10983;51.982;9.226;2024-03-23T14:40:31;2.67;;;1.85;;
21643;SDS011;10983;51.982;9.226;2024-03-23T14:42:57;0.20;;;0.20;;
21643;SDS011;10983;51.982;9.226;2024-03-23T14:45:23;0.10;;;0.10;;
21643;SDS011;10983;51.982;9.226;2024-03-23T14:47:50;0.55;;;0.55;;
21643;SDS011;10983;51.982;9.226;2024-03-23T14:50:16;0.20;;;0.20;;
21643;SDS011;10983;51.982;9.226;2024-03-23T14:52:43;0.20;;;0.20;;
21643;SDS011;10983;51.982;9.226;2024-03-23T14:55:10;0.00;;;0.00;;
21643;SDS011;10983;51.982;9.226;2024-03-23T14:57:36;0.10;;;0.10;;
21643;SDS011;10983;51.982;9.226;2024-03-23T15:00:05;0.85;;;0.45;;
21643;SDS011;10983;51.982;9.226;2024-03-23T15:02:32;0.00;;;0.00;;
21643;SDS011;10983;51.982;9.226;2024-03-23T15:04:59;0.00;;;0.00;;
21643;SDS011;10983;51.982;9.226;2024-03-23T15:07:25;7.03;;;0.45;;
21643;SDS011;10983;51.982;9.226;2024-03-23T15:09:53;0.75;;;0.28;;
21643;SDS011;10983;51.982;9.226;2024-03-23T15:12:19;0.00;;;0.00;;
21643;SDS011;10983;51.982;9.226;2024-03-23T15:14:46;0.30;;;0.30;;
21643;SDS011;10983;51.982;9.226;2024-03-23T15:17:12;0.57;;;0.20;;
21643;SDS011;10983;51.982;9.226;2024-03-23T15:19:39;1.73;;;1.05;;
21643;SDS011;10983;51.982;9.226;2024-03-23T15:22:05;0.47;;;0.47;;
21643;SDS011;10983;51.982;9.226;2024-03-23T15:24:32;1.27;;;0.90;;
21643;SDS011;10983;51.982;9.226;2024-03-23T15:27:00;0.80;;;0.73;;
21643;SDS011;10983;51.982;9.226;2024-03-23T15:29:27;0.50;;;0.50;;
21643;SDS011;10983;51.982;9.226;2024-03-23T15:31:52;0.15;;;0.15;;
21643;SDS011;10983;51.982;9.226;2024-03-23T15:34:19;0.65;;;0.65;;
21643;SDS011;10983;51.982;9.226;2024-03-23T15:36:47;1.92;;;0.85;;
21643;SDS011;10983;51.982;9.226;2024-03-23T15:39:14;0.40;;;0.40;;
21643;SDS011;10983;51.982;9.226;2024-03-23T15:41:40;0.50;;;0.50;;
21643;SDS011;10983;51.982;9.226;2024-03-23T15:44:08;5.05;;;2.05;;